Time;durP1;ratioP1;P1;durP2;ratioP2;P2;SDS_P1;SDS_P2;PMS_P1;PMS_P2;Temp;Humidity;BMP_temperature;BMP_pressure;BME280_temperature;BME280_humidity;BME280_pressure;Samples;Min_cycle;Max_cycle;Signal;HPM_P1;HPM_P2
2023/04/29 00:00:33;;;;;;;;;;;12.60;99.90;;;;;;4985901;28;21203;-77
2023/04/29 00:03:01;;;;;;;;;;;12.60;99.90;;;;;;4986082;28;19913;-77
2023/04/29 00:05:35;;;;;;;;;;;12.60;99.90;;;;;;5003244;28;19959;-78
2023/04/29 00:08:03;;;;;;;;;;;12.60;99.90;;;;;;4986717;28;20351;-77
2023/04/29 00:10:29;;;;;;;;;;;12.60;99.90;;;;;;4983877;28;19948;-77
2023/04/29 00:12:54;;;;;;;;;;;12.60;99.90;;;;;;4995360;28;20384;-78
2023/04/29 00:15:20;;;;;;;;;;;12.60;99.90;;;;;;5002414;28;20047;-77
2023/04/29 00:17:46;;;;;;;;;;;12.60;99.90;;;;;;5003566;28;20259;-77
2023/04/29 00:20:13;;;;;;;;;;;12.70;99.90;;;;;;4990583;28;19913;-77
2023/04/29 00:22:46;;;;;;;;;;;12.60;99.90;;;;;;5002716;28;19912;-77
2023/04/29 00:25:18;;;;;;;;;;;12.60;99.90;;;;;;5003058;28;20254;-77
2023/04/29 00:27:43;;;;;;;;;;;12.60;99.90;;;;;;4988341;28;19940;-78
2023/04/29 00:30:09;;;;;;;;;;;12.70;99.90;;;;;;5004450;28;19905;-77
2023/04/29 00:32:36;;;;;;;;;;;12.70;99.90;;;;;;5006309;28;19914;-77
2023/04/29 00:35:04;;;;;;;;;;;12.70;99.90;;;;;;4984108;28;19913;-77
2023/04/29 00:37:29;;;;;;;;;;;12.80;99.90;;;;;;4988429;28;19917;-77
2023/04/29 00:39:55;;;;;;;;;;;12.80;99.90;;;;;;4984831;28;19921;-78
2023/04/29 00:42:21;;;;;;;;;;;12.80;99.90;;;;;;4993827;28;19909;-77
2023/04/29 00:44:46;;;;;;;;;;;12.80;99.90;;;;;;4999897;28;20359;-77
2023/04/29 00:47:12;;;;;;;;;;;12.80;99.90;;;;;;5000219;28;19913;-77
2023/04/29 00:49:38;;;;;;;;;;;12.70;99.90;;;;;;5002263;28;19960;-77
2023/04/29 00:52:06;;;;;;;;;;;12.70;99.90;;;;;;5004806;28;19921;-77
2023/04/29 00:54:34;;;;;;;;;;;12.60;99.90;;;;;;4987539;28;19936;-77
2023/04/29 00:57:00;;;;;;;;;;;12.50;99.90;;;;;;4996737;28;19906;-77
2023/04/29 00:59:32;;;;;;;;;;;12.40;99.90;;;;;;4978683;28;19909;-78
2023/04/29 01:02:08;;;;;;;;;;;12.30;99.90;;;;;;5004246;28;19945;-77
2023/04/29 01:04:35;;;;;;;;;;;12.20;99.90;;;;;;4997327;28;19915;-77
2023/04/29 01:07:13;;;;;;;;;;;12.20;99.90;;;;;;4998975;28;19933;-77
2023/04/29 01:09:47;;;;;;;;;;;12.10;99.90;;;;;;4980835;28;20000;-77
2023/04/29 01:12:25;;;;;;;;;;;12.10;99.90;;;;;;4992574;28;19909;-77
2023/04/29 01:15:18;;;;;;;;;;;12.00;99.90;;;;;;4977989;28;19913;-77
2023/04/29 01:17:59;;;;;;;;;;;12.00;99.90;;;;;;4976951;28;19913;-77
2023/04/29 01:20:25;;;;;;;;;;;11.90;99.90;;;;;;4983212;28;19909;-77
2023/04/29 01:22:55;;;;;;;;;;;11.80;99.90;;;;;;4982482;28;19905;-77
2023/04/29 01:25:30;;;;;;;;;;;11.80;99.90;;;;;;4988734;28;19913;-77
2023/04/29 01:28:32;;;;;;;;;;;11.90;99.90;;;;;;4974612;28;19985;-78
2023/04/29 01:30:58;;;;;;;;;;;11.80;99.90;;;;;;4977390;28;19913;-77
2023/04/29 01:33:42;;;;;;;;;;;11.70;99.90;;;;;;4997383;28;19914;-77
2023/04/29 01:36:18;;;;;;;;;;;11.70;99.90;;;;;;4988538;28;20004;-77
2023/04/29 01:38:48;;;;;;;;;;;11.60;99.90;;;;;;4979936;28;19914;-77
2023/04/29 01:41:15;;;;;;;;;;;11.60;99.90;;;;;;4998335;28;19913;-77
2023/04/29 01:43:42;;;;;;;;;;;11.70;99.90;;;;;;4998126;28;20401;-77
2023/04/29 01:46:10;;;;;;;;;;;11.70;99.90;;;;;;4992604;28;20563;-79
2023/04/29 01:48:43;;;;;;;;;;;11.70;99.90;;;;;;4981211;28;19940;-77
2023/04/29 01:51:11;;;;;;;;;;;11.60;99.90;;;;;;4979885;28;19910;-77
2023/04/29 01:53:40;;;;;;;;;;;11.60;99.90;;;;;;4981755;28;19959;-77
2023/04/29 01:56:09;;;;;;;;;;;11.50;99.90;;;;;;4980333;28;19913;-77
2023/04/29 01:58:39;;;;;;;;;;;11.50;99.90;;;;;;4977145;28;20007;-77
2023/04/29 02:01:05;;;;;;;;;;;11.60;99.90;;;;;;4981241;28;19939;-77
2023/04/29 02:03:31;;;;;;;;;;;11.60;99.90;;;;;;4994471;28;19905;-77
2023/04/29 02:05:58;;;;;;;;;;;11.60;99.90;;;;;;5000151;28;19952;-77
2023/04/29 02:08:25;;;;;;;;;;;11.60;99.90;;;;;;4980207;28;19905;-77
2023/04/29 02:10:58;;;;;;;;;;;11.70;99.90;;;;;;4998655;28;21276;-77
2023/04/29 02:13:24;;;;;;;;;;;11.70;99.90;;;;;;4998937;28;19941;-77
2023/04/29 02:16:10;;;;;;;;;;;11.70;99.90;;;;;;4998460;28;19952;-77
2023/04/29 02:18:36;;;;;;;;;;;11.70;99.90;;;;;;4992986;28;19917;-78
2023/04/29 02:21:02;;;;;;;;;;;11.70;99.90;;;;;;4997726;28;20338;-77
2023/04/29 02:23:28;;;;;;;;;;;11.70;99.90;;;;;;4982596;28;19921;-77
2023/04/29 02:25:54;;;;;;;;;;;11.70;99.90;;;;;;4981064;28;20005;-77
2023/04/29 02:28:22;;;;;;;;;;;11.80;99.90;;;;;;4983823;28;19984;-77
2023/04/29 02:30:48;;;;;;;;;;;11.80;99.90;;;;;;4983352;28;19956;-77
2023/04/29 02:33:17;;;;;;;;;;;11.80;99.90;;;;;;5000053;28;19937;-77
2023/04/29 02:35:44;;;;;;;;;;;11.80;99.90;;;;;;4990018;28;19905;-77
2023/04/29 02:38:16;;;;;;;;;;;11.90;99.90;;;;;;4997925;28;19909;-77
2023/04/29 02:40:47;;;;;;;;;;;11.90;99.90;;;;;;4984814;28;20286;-77
2023/04/29 02:43:13;;;;;;;;;;;11.90;99.90;;;;;;4996520;28;19917;-77
2023/04/29 02:45:40;;;;;;;;;;;11.90;99.90;;;;;;4998995;28;20631;-78
2023/04/29 02:48:09;;;;;;;;;;;11.90;99.90;;;;;;4980870;28;19956;-77
2023/04/29 02:50:35;;;;;;;;;;;11.90;99.90;;;;;;4995281;28;19913;-77
2023/04/29 02:53:02;;;;;;;;;;;11.90;99.90;;;;;;4998212;28;20480;-77
2023/04/29 02:55:31;;;;;;;;;;;11.90;99.90;;;;;;4993770;28;19905;-77
2023/04/29 02:57:59;;;;;;;;;;;11.90;99.90;;;;;;4997938;28;19905;-77
2023/04/29 03:00:28;;;;;;;;;;;11.90;99.90;;;;;;4983574;28;19917;-77
2023/04/29 03:02:57;;;;;;;;;;;12.00;99.90;;;;;;5002479;28;20000;-77
2023/04/29 03:05:23;;;;;;;;;;;12.00;99.90;;;;;;4994155;28;19913;-77
2023/04/29 03:07:49;;;;;;;;;;;11.90;99.90;;;;;;4997889;28;19936;-77
2023/04/29 03:10:17;;;;;;;;;;;11.90;99.90;;;;;;4979188;28;19909;-77
2023/04/29 03:12:43;;;;;;;;;;;11.90;99.90;;;;;;4993577;28;20302;-77
2023/04/29 03:15:10;;;;;;;;;;;11.90;99.90;;;;;;4996349;28;19953;-77
2023/04/29 03:17:36;;;;;;;;;;;12.00;99.90;;;;;;4981153;28;19909;-77
2023/04/29 03:20:03;;;;;;;;;;;12.00;99.90;;;;;;4976650;28;19921;-77
2023/04/29 03:22:35;;;;;;;;;;;12.10;99.90;;;;;;4996900;28;19909;-77
2023/04/29 03:25:09;;;;;;;;;;;12.10;99.90;;;;;;4997466;28;19916;-77
2023/04/29 03:27:35;;;;;;;;;;;12.20;99.90;;;;;;4999185;28;19917;-77
2023/04/29 03:30:01;;;;;;;;;;;12.20;99.90;;;;;;5003464;28;19905;-77
2023/04/29 03:32:30;;;;;;;;;;;12.20;99.90;;;;;;4979597;28;19945;-77
2023/04/29 03:34:57;;;;;;;;;;;12.20;99.90;;;;;;5000002;28;20048;-77
2023/04/29 03:37:23;;;;;;;;;;;12.20;99.90;;;;;;4997977;28;19912;-77
2023/04/29 03:39:50;;;;;;;;;;;12.30;99.90;;;;;;4978656;28;19917;-77
2023/04/29 03:42:16;;;;;;;;;;;12.30;99.90;;;;;;4984595;28;19963;-77
2023/04/29 03:44:41;;;;;;;;;;;12.30;99.90;;;;;;4976954;28;19906;-77
2023/04/29 03:47:07;;;;;;;;;;;12.30;99.90;;;;;;4993882;28;19910;-77
2023/04/29 03:49:33;;;;;;;;;;;12.30;99.90;;;;;;4977736;28;20004;-77
2023/04/29 03:52:01;;;;;;;;;;;12.30;99.90;;;;;;5002662;28;19909;-77
2023/04/29 03:54:27;;;;;;;;;;;12.20;99.90;;;;;;4972835;28;19963;-77
2023/04/29 03:56:53;;;;;;;;;;;12.10;99.90;;;;;;4997290;28;20004;-79
2023/04/29 03:59:22;;;;;;;;;;;12.00;99.90;;;;;;4976050;28;19996;-77
2023/04/29 04:02:01;;;;;;;;;;;12.00;99.90;;;;;;4978271;28;20755;-77
2023/04/29 04:04:28;;;;;;;;;;;12.00;99.90;;;;;;4973093;28;19909;-78
2023/04/29 04:06:54;;;;;;;;;;;11.90;99.90;;;;;;4997886;28;19913;-77
2023/04/29 04:09:24;;;;;;;;;;;11.80;99.90;;;;;;4996517;28;20000;-77
2023/04/29 04:11:52;;;;;;;;;;;11.90;99.90;;;;;;5000828;28;19928;-77
2023/04/29 04:14:18;;;;;;;;;;;11.90;99.90;;;;;;4975285;28;20389;-77
2023/04/29 04:16:49;;;;;;;;;;;11.90;99.90;;;;;;5001684;28;19916;-79
2023/04/29 04:19:19;;;;;;;;;;;12.00;99.90;;;;;;4975799;28;19909;-77
2023/04/29 04:21:46;;;;;;;;;;;12.00;99.90;;;;;;4989032;28;20397;-77
2023/04/29 04:24:18;;;;;;;;;;;12.00;99.90;;;;;;4995542;28;19943;-77
2023/04/29 04:26:46;;;;;;;;;;;12.00;99.90;;;;;;4996136;28;19921;-77
2023/04/29 04:29:12;;;;;;;;;;;12.00;99.90;;;;;;4979645;28;19913;-77
2023/04/29 04:31:42;;;;;;;;;;;11.90;99.90;;;;;;4999699;28;20263;-77
2023/04/29 04:34:11;;;;;;;;;;;11.90;99.90;;;;;;4981472;28;19912;-77
2023/04/29 04:36:48;;;;;;;;;;;12.00;99.90;;;;;;4980514;28;20010;-77
2023/04/29 04:39:14;;;;;;;;;;;12.00;99.90;;;;;;4981115;28;20358;-77
2023/04/29 04:41:46;;;;;;;;;;;12.10;99.90;;;;;;5001022;28;19905;-77
2023/04/29 04:44:13;;;;;;;;;;;12.20;99.90;;;;;;5001047;28;19913;-78
2023/04/29 04:46:41;;;;;;;;;;;12.20;99.90;;;;;;4999562;28;20410;-77
2023/04/29 04:49:06;;;;;;;;;;;12.20;99.90;;;;;;4983497;28;19944;-77
2023/04/29 04:51:34;;;;;;;;;;;12.30;99.90;;;;;;4998577;28;19909;-77
2023/04/29 04:54:01;;;;;;;;;;;12.20;99.90;;;;;;4974740;28;19906;-77
2023/04/29 04:56:41;;;;;;;;;;;12.20;99.90;;;;;;4996495;28;19955;-77
2023/04/29 04:59:07;;;;;;;;;;;12.20;99.90;;;;;;4999403;28;19917;-77
2023/04/29 05:01:34;;;;;;;;;;;12.20;99.90;;;;;;5001651;28;19916;-77
2023/04/29 05:03:59;;;;;;;;;;;12.20;99.90;;;;;;4985069;28;19947;-77
2023/04/29 05:06:25;;;;;;;;;;;12.20;99.90;;;;;;4997582;28;19913;-77
2023/04/29 05:08:51;;;;;;;;;;;12.30;99.90;;;;;;4988110;28;19915;-77
2023/04/29 05:11:23;;;;;;;;;;;12.40;99.90;;;;;;5006466;28;19917;-77
2023/04/29 05:13:50;;;;;;;;;;;12.50;99.90;;;;;;5002685;28;20815;-76
2023/04/29 05:16:16;;;;;;;;;;;12.60;99.90;;;;;;4981917;28;19956;-76
2023/04/29 05:18:44;;;;;;;;;;;12.70;99.90;;;;;;4999200;28;19912;-77
2023/04/29 05:21:23;;;;;;;;;;;12.80;99.90;;;;;;5000555;28;20310;-77
2023/04/29 05:23:48;;;;;;;;;;;12.90;99.90;;;;;;4990766;28;19913;-77
2023/04/29 05:26:20;;;;;;;;;;;13.00;99.90;;;;;;4982254;28;19933;-77
2023/04/29 05:28:46;;;;;;;;;;;13.00;99.90;;;;;;4981015;28;19917;-77
2023/04/29 05:31:15;;;;;;;;;;;13.00;99.90;;;;;;4983922;28;19908;-76
2023/04/29 05:33:42;;;;;;;;;;;13.00;99.90;;;;;;4980795;28;19905;-77
2023/04/29 05:36:07;;;;;;;;;;;13.10;99.90;;;;;;5002578;28;19913;-76
2023/04/29 05:38:40;;;;;;;;;;;13.20;99.90;;;;;;5002382;28;19913;-77
2023/04/29 05:41:06;;;;;;;;;;;13.30;99.90;;;;;;4979560;28;20067;-78
2023/04/29 05:43:33;;;;;;;;;;;13.40;99.90;;;;;;4983953;28;19936;-77
2023/04/29 05:45:59;;;;;;;;;;;13.50;99.90;;;;;;4979527;28;19910;-77
2023/04/29 05:48:29;;;;;;;;;;;13.50;99.90;;;;;;5002435;28;19913;-77
2023/04/29 05:50:55;;;;;;;;;;;13.60;99.90;;;;;;4986603;28;19910;-77
2023/04/29 05:53:28;;;;;;;;;;;13.80;99.90;;;;;;4980929;28;20033;-77
2023/04/29 05:55:54;;;;;;;;;;;13.90;99.90;;;;;;4985406;28;19936;-77
2023/04/29 05:58:20;;;;;;;;;;;14.00;99.90;;;;;;4980406;28;19916;-77
2023/04/29 06:00:48;;;;;;;;;;;14.10;99.90;;;;;;4979673;28;19909;-77
2023/04/29 06:03:13;;;;;;;;;;;14.10;99.90;;;;;;4990053;28;20638;-77
2023/04/29 06:05:39;;;;;;;;;;;14.10;99.90;;;;;;4979335;28;19927;-77
2023/04/29 06:08:09;;;;;;;;;;;14.10;99.90;;;;;;4995359;28;19913;-77
2023/04/29 06:10:36;;;;;;;;;;;14.10;99.90;;;;;;4994877;28;19914;-78
2023/04/29 06:13:02;;;;;;;;;;;14.00;99.90;;;;;;4980799;28;19906;-77
2023/04/29 06:15:29;;;;;;;;;;;14.10;99.90;;;;;;4998128;28;19909;-78
2023/04/29 06:17:56;;;;;;;;;;;14.30;99.90;;;;;;4978989;28;19927;-77
2023/04/29 06:20:24;;;;;;;;;;;14.40;99.90;;;;;;4975521;28;19917;-78
2023/04/29 06:22:57;;;;;;;;;;;14.40;99.90;;;;;;4998198;28;20319;-77
2023/04/29 06:25:26;;;;;;;;;;;14.60;99.90;;;;;;4978507;28;19910;-77
2023/04/29 06:27:55;;;;;;;;;;;15.00;99.90;;;;;;4999574;28;19948;-77
2023/04/29 06:30:21;;;;;;;;;;;15.70;99.90;;;;;;4996059;28;19999;-77
2023/04/29 06:32:48;;;;;;;;;;;15.90;99.90;;;;;;4979330;28;20004;-78
2023/04/29 06:35:14;;;;;;;;;;;15.60;99.90;;;;;;4997278;28;19916;-77
2023/04/29 06:37:47;;;;;;;;;;;15.60;99.90;;;;;;4981362;28;19909;-78
2023/04/29 06:40:16;;;;;;;;;;;15.70;99.90;;;;;;4998089;28;19909;-77
2023/04/29 06:42:42;;;;;;;;;;;15.80;99.90;;;;;;4997693;28;19920;-78
2023/04/29 06:45:08;;;;;;;;;;;16.20;99.90;;;;;;4995387;28;20291;-78
2023/04/29 06:47:37;;;;;;;;;;;16.20;99.90;;;;;;4978747;28;19913;-78
2023/04/29 06:50:03;;;;;;;;;;;16.50;99.90;;;;;;4984036;28;19906;-78
2023/04/29 06:52:40;;;;;;;;;;;16.90;99.90;;;;;;4995772;28;19919;-78
2023/04/29 06:55:08;;;;;;;;;;;17.40;99.90;;;;;;4988390;28;19917;-79
2023/04/29 06:57:35;;;;;;;;;;;19.80;99.90;;;;;;4994611;28;20880;-79
2023/04/29 07:00:01;;;;;;;;;;;21.80;99.90;;;;;;4975874;28;19944;-78
2023/04/29 07:02:29;;;;;;;;;;;22.90;99.90;;;;;;5000419;28;20569;-80
2023/04/29 07:04:54;;;;;;;;;;;21.90;99.90;;;;;;4996074;28;19912;-78
2023/04/29 07:07:24;;;;;;;;;;;21.20;99.90;;;;;;4980133;28;21273;-78
2023/04/29 07:09:57;;;;;;;;;;;20.60;99.90;;;;;;4997117;28;19945;-78
2023/04/29 07:12:37;;;;;;;;;;;20.40;99.90;;;;;;4993788;28;19913;-79
2023/04/29 07:15:04;;;;;;;;;;;20.20;99.90;;;;;;4996099;28;19912;-79
2023/04/29 07:17:34;;;;;;;;;;;21.50;99.90;;;;;;4979459;28;20355;-79
2023/04/29 07:20:01;;;;;;;;;;;23.10;99.90;;;;;;4994759;28;19916;-78
2023/04/29 07:22:28;;;;;;;;;;;24.10;99.90;;;;;;4982366;28;19909;-78
2023/04/29 07:24:55;;;;;;;;;;;24.10;99.40;;;;;;4980480;28;19913;-78
2023/04/29 07:27:28;;;;;;;;;;;24.70;99.50;;;;;;4980502;28;19905;-78
2023/04/29 07:30:00;;;;;;;;;;;25.60;98.50;;;;;;5000863;28;19928;-79
2023/04/29 07:32:33;;;;;;;;;;;25.70;95.90;;;;;;4998958;28;19909;-78
2023/04/29 07:35:00;;;;;;;;;;;24.80;98.40;;;;;;4997056;28;20003;-78
2023/04/29 07:37:31;;;;;;;;;;;25.10;97.80;;;;;;4979474;28;19909;-83
2023/04/29 07:39:57;;;;;;;;;;;24.30;98.10;;;;;;4975921;28;19914;-78
2023/04/29 07:42:25;;;;;;;;;;;23.40;99.80;;;;;;4984123;28;19959;-78
2023/04/29 07:44:51;;;;;;;;;;;22.30;99.90;;;;;;5000086;28;19917;-79
2023/04/29 07:47:18;;;;;;;;;;;21.80;99.90;;;;;;4999343;28;19945;-79
2023/04/29 07:49:43;;;;;;;;;;;22.30;99.90;;;;;;4976010;28;19913;-81
2023/04/29 07:52:16;;;;;;;;;;;23.20;99.90;;;;;;5003802;28;19906;-79
2023/04/29 07:54:43;;;;;;;;;;;25.10;99.30;;;;;;4999356;28;19905;-78
2023/04/29 07:57:09;;;;;;;;;;;27.40;94.60;;;;;;4981715;28;19920;-78
2023/04/29 07:59:43;;;;;;;;;;;28.10;91.40;;;;;;4996954;28;19917;-78
2023/04/29 08:02:09;;;;;;;;;;;28.80;86.60;;;;;;4998885;28;19912;-80
2023/04/29 08:04:38;;;;;;;;;;;28.00;86.50;;;;;;4993536;28;19913;-80
2023/04/29 08:07:11;;;;;;;;;;;28.50;86.20;;;;;;4997618;28;20012;-81
2023/04/29 08:09:37;;;;;;;;;;;27.20;86.50;;;;;;4998939;28;19959;-79
2023/04/29 08:12:03;;;;;;;;;;;24.00;93.30;;;;;;5000301;28;19909;-77
2023/04/29 08:14:35;;;;;;;;;;;22.80;97.00;;;;;;5000950;28;19920;-79
2023/04/29 08:17:00;;;;;;;;;;;21.60;99.20;;;;;;4999928;28;19906;-80
2023/04/29 08:19:26;;;;;;;;;;;20.90;99.90;;;;;;4980633;28;20374;-79
2023/04/29 08:21:54;;;;;;;;;;;20.70;99.90;;;;;;4989424;28;19913;-80
2023/04/29 08:24:20;;;;;;;;;;;20.30;99.90;;;;;;5006183;28;19909;-78
2023/04/29 08:26:46;;;;;;;;;;;20.40;99.90;;;;;;4986491;28;19984;-78
2023/04/29 08:29:19;;;;;;;;;;;21.20;99.90;;;;;;5001730;28;20430;-78
2023/04/29 08:31:53;;;;;;;;;;;21.20;99.90;;;;;;4992698;28;20008;-78
2023/04/29 08:34:18;;;;;;;;;;;21.30;99.90;;;;;;5001398;28;19911;-79
2023/04/29 08:36:46;;;;;;;;;;;22.40;99.90;;;;;;4994571;28;19927;-77
2023/04/29 08:39:13;;;;;;;;;;;20.60;99.90;;;;;;4996715;28;20008;-79
2023/04/29 08:41:39;;;;;;;;;;;19.60;99.90;;;;;;5000081;28;19905;-78
2023/04/29 08:44:06;;;;;;;;;;;19.20;99.90;;;;;;4977671;28;19928;-78
2023/04/29 08:46:37;;;;;;;;;;;19.10;99.90;;;;;;4999675;28;19906;-77
2023/04/29 08:49:05;;;;;;;;;;;18.90;99.90;;;;;;4998502;28;19912;-77
2023/04/29 08:51:33;;;;;;;;;;;18.90;99.90;;;;;;4998576;28;19928;-80
2023/04/29 08:53:59;;;;;;;;;;;19.00;99.90;;;;;;4981819;28;20346;-80
2023/04/29 08:56:27;;;;;;;;;;;18.70;99.90;;;;;;4986989;28;20075;-80
2023/04/29 08:58:57;;;;;;;;;;;18.50;99.90;;;;;;4984879;28;19905;-78
2023/04/29 09:01:26;;;;;;;;;;;18.70;99.90;;;;;;4984414;28;19905;-78
2023/04/29 09:04:07;;;;;;;;;;;18.90;99.90;;;;;;4975839;28;20008;-78
2023/04/29 09:06:35;;;;;;;;;;;18.30;99.90;;;;;;4981185;28;20271;-78
2023/04/29 09:09:02;;;;;;;;;;;18.30;99.90;;;;;;4982102;28;19905;-77
2023/04/29 09:11:31;;;;;;;;;;;18.50;99.90;;;;;;4975803;28;20543;-80
2023/04/29 09:14:01;;;;;;;;;;;18.80;99.90;;;;;;4991120;28;20604;-80
2023/04/29 09:16:28;;;;;;;;;;;19.00;99.90;;;;;;4982166;28;19909;-80
2023/04/29 09:18:59;;;;;;;;;;;19.10;99.90;;;;;;4997058;28;20270;-80
2023/04/29 09:21:31;;;;;;;;;;;19.40;99.90;;;;;;4981269;28;20504;-77
2023/04/29 09:23:59;;;;;;;;;;;19.70;99.90;;;;;;4995303;28;19936;-80
2023/04/29 09:26:36;;;;;;;;;;;20.30;99.90;;;;;;4999225;28;19909;-79
2023/04/29 09:29:10;;;;;;;;;;;20.60;99.90;;;;;;4980411;28;19909;-82
2023/04/29 09:31:42;;;;;;;;;;;20.60;99.90;;;;;;4999360;28;19914;-79
2023/04/29 09:34:10;;;;;;;;;;;20.80;99.90;;;;;;4999238;28;20273;-78
2023/04/29 09:36:40;;;;;;;;;;;21.20;99.90;;;;;;4997489;28;19913;-80
2023/04/29 09:39:13;;;;;;;;;;;21.90;99.90;;;;;;4998133;28;19917;-80
2023/04/29 09:41:58;;;;;;;;;;;23.30;99.90;;;;;;4979698;28;19916;-79
2023/04/29 09:44:40;;;;;;;;;;;24.90;99.90;;;;;;4986627;28;20027;-80
2023/04/29 09:47:08;;;;;;;;;;;27.20;99.40;;;;;;5002042;28;19913;-79
2023/04/29 09:49:36;;;;;;;;;;;30.60;93.50;;;;;;4978705;28;19913;-77
2023/04/29 09:52:04;;;;;;;;;;;32.50;83.50;;;;;;4981344;28;19905;-79
2023/04/29 09:54:31;;;;;;;;;;;33.90;73.50;;;;;;4981685;28;19905;-81
2023/04/29 09:56:59;;;;;;;;;;;34.50;67.30;;;;;;4983345;28;20286;-80
2023/04/29 09:59:36;;;;;;;;;;;34.40;64.80;;;;;;5003515;28;19980;-80
2023/04/29 10:02:09;;;;;;;;;;;33.60;69.30;;;;;;4996321;28;19912;-81
2023/04/29 10:04:41;;;;;;;;;;;34.10;66.30;;;;;;4982315;28;19945;-80
2023/04/29 10:07:15;;;;;;;;;;;34.00;64.80;;;;;;4978764;28;19906;-80
2023/04/29 10:09:44;;;;;;;;;;;34.50;63.70;;;;;;4996182;28;20004;-79
2023/04/29 10:12:17;;;;;;;;;;;34.70;61.50;;;;;;4998900;28;19996;-80
2023/04/29 10:14:56;;;;;;;;;;;34.70;59.00;;;;;;4996527;28;19920;-80
2023/04/29 10:17:43;;;;;;;;;;;35.80;61.00;;;;;;4979451;28;19913;-79
2023/04/29 10:20:20;;;;;;;;;;;34.20;56.10;;;;;;5003010;28;20292;-76
2023/04/29 10:22:48;;;;;;;;;;;32.00;60.00;;;;;;4982119;28;19916;-76
2023/04/29 10:25:18;;;;;;;;;;;30.20;63.10;;;;;;4983073;28;20650;-76
2023/04/29 10:27:45;;;;;;;;;;;29.10;65.00;;;;;;4982433;28;19909;-78
2023/04/29 10:30:13;;;;;;;;;;;27.40;67.90;;;;;;4983225;28;19906;-79
2023/04/29 10:32:43;;;;;;;;;;;26.00;72.80;;;;;;4997077;28;20500;-78
2023/04/29 10:35:09;;;;;;;;;;;25.30;74.00;;;;;;4983236;28;19991;-78
2023/04/29 10:37:41;;;;;;;;;;;24.90;75.50;;;;;;4981956;28;19913;-79
2023/04/29 10:40:08;;;;;;;;;;;24.80;76.60;;;;;;4996137;28;20001;-78
2023/04/29 10:42:36;;;;;;;;;;;24.50;78.50;;;;;;4995542;28;19992;-78
2023/04/29 10:45:28;;;;;;;;;;;24.50;78.10;;;;;;4996575;28;19920;-79
2023/04/29 10:48:01;;;;;;;;;;;24.10;79.60;;;;;;4975862;28;20667;-79
2023/04/29 10:50:46;;;;;;;;;;;23.80;80.00;;;;;;4994436;28;19909;-76
2023/04/29 10:53:14;;;;;;;;;;;23.40;81.30;;;;;;4994224;28;19916;-77
2023/04/29 10:55:41;;;;;;;;;;;22.90;84.20;;;;;;4997009;28;19921;-80
2023/04/29 10:58:43;;;;;;;;;;;22.60;87.80;;;;;;4998892;28;19918;-80
2023/04/29 11:01:11;;;;;;;;;;;23.00;88.20;;;;;;4920848;29;19922;-77
2023/04/29 11:03:58;;;;;;;;;;;23.50;87.20;;;;;;4966049;28;19921;-78
2023/04/29 11:06:46;;;;;;;;;;;23.60;85.00;;;;;;4980535;28;19960;-77
2023/04/29 11:09:24;;;;;;;;;;;23.50;84.00;;;;;;4981690;28;19906;-78
2023/04/29 11:11:59;;;;;;;;;;;23.60;87.50;;;;;;4997346;28;19913;-78
2023/04/29 11:14:36;;;;;;;;;;;23.60;90.40;;;;;;4993070;28;21762;-78
2023/04/29 11:17:03;;;;;;;;;;;23.80;91.00;;;;;;4989018;28;19917;-79
2023/04/29 11:19:43;;;;;;;;;;;23.10;89.80;;;;;;4978833;28;20634;-79
2023/04/29 11:22:23;;;;;;;;;;;20.50;99.90;;;;;;4984793;28;20412;-79
2023/04/29 11:24:55;;;;;;;;;;;19.80;99.90;;;;;;4977846;28;20457;-79
2023/04/29 11:27:26;;;;;;;;;;;18.70;99.90;;;;;;4981348;28;19901;-78
2023/04/29 11:29:57;;;;;;;;;;;18.20;99.90;;;;;;4980764;28;19913;-78
2023/04/29 11:32:24;;;;;;;;;;;17.80;99.90;;;;;;5002518;28;19909;-79
2023/04/29 11:34:55;;;;;;;;;;;17.60;99.90;;;;;;4982396;28;19924;-79
2023/04/29 11:37:25;;;;;;;;;;;17.80;99.90;;;;;;5000418;28;19913;-78
2023/04/29 11:39:57;;;;;;;;;;;17.50;99.90;;;;;;4976160;28;19917;-79
2023/04/29 11:42:23;;;;;;;;;;;17.20;99.90;;;;;;4996266;28;20407;-77
2023/04/29 11:44:53;;;;;;;;;;;17.50;99.90;;;;;;4989819;28;20051;-78
2023/04/29 11:47:20;;;;;;;;;;;17.70;99.90;;;;;;4998486;28;20362;-78
2023/04/29 11:49:47;;;;;;;;;;;18.00;99.90;;;;;;4985881;28;19928;-78
2023/04/29 11:52:13;;;;;;;;;;;17.80;99.90;;;;;;4999274;28;19905;-78
2023/04/29 11:54:40;;;;;;;;;;;17.30;99.90;;;;;;4972903;28;19909;-78
2023/04/29 11:57:09;;;;;;;;;;;17.20;99.90;;;;;;4980914;28;19916;-79
2023/04/29 11:59:35;;;;;;;;;;;17.40;99.90;;;;;;4971623;28;19921;-79
2023/04/29 12:02:03;;;;;;;;;;;17.40;99.90;;;;;;4978867;28;19947;-78
2023/04/29 12:04:28;;;;;;;;;;;17.30;99.90;;;;;;4998468;28;19909;-78
2023/04/29 12:06:55;;;;;;;;;;;17.00;99.90;;;;;;4982137;28;19912;-78
2023/04/29 12:09:21;;;;;;;;;;;16.80;99.90;;;;;;4991749;28;19913;-78
2023/04/29 12:11:49;;;;;;;;;;;16.60;99.90;;;;;;4975914;28;20013;-78
2023/04/29 12:14:15;;;;;;;;;;;16.60;99.90;;;;;;4978076;28;20278;-78
2023/04/29 12:16:42;;;;;;;;;;;16.60;99.90;;;;;;4980927;28;19909;-78
2023/04/29 12:19:09;;;;;;;;;;;16.50;99.90;;;;;;4992235;28;19920;-78
2023/04/29 12:21:35;;;;;;;;;;;16.30;99.90;;;;;;4973182;28;19920;-78
2023/04/29 12:24:02;;;;;;;;;;;16.30;99.90;;;;;;4975849;28;19913;-78
2023/04/29 12:26:32;;;;;;;;;;;16.40;99.90;;;;;;4979046;28;19915;-78
2023/04/29 12:28:59;;;;;;;;;;;16.60;99.90;;;;;;4999864;28;19956;-78
2023/04/29 12:31:33;;;;;;;;;;;16.60;99.90;;;;;;4996569;28;19971;-78
2023/04/29 12:34:01;;;;;;;;;;;16.50;99.90;;;;;;4988374;28;20489;-78
2023/04/29 12:36:27;;;;;;;;;;;16.20;99.90;;;;;;4992576;28;20690;-78
2023/04/29 12:38:54;;;;;;;;;;;16.10;99.90;;;;;;4996081;28;19992;-78
2023/04/29 12:41:42;;;;;;;;;;;16.00;99.90;;;;;;4981983;28;20534;-78
2023/04/29 12:44:12;;;;;;;;;;;16.10;99.90;;;;;;4997522;28;19928;-78
2023/04/29 12:46:44;;;;;;;;;;;16.20;99.90;;;;;;4996108;28;19909;-78
2023/04/29 12:49:10;;;;;;;;;;;16.20;99.90;;;;;;4997310;28;19917;-79
2023/04/29 12:51:38;;;;;;;;;;;15.90;99.90;;;;;;4979081;28;20007;-78
2023/04/29 12:54:08;;;;;;;;;;;15.50;99.90;;;;;;4981061;28;19920;-77
2023/04/29 12:56:33;;;;;;;;;;;15.40;99.90;;;;;;4980641;28;19980;-78
2023/04/29 12:59:11;;;;;;;;;;;15.20;99.90;;;;;;4997227;28;20351;-78
2023/04/29 13:01:38;;;;;;;;;;;15.20;99.90;;;;;;4983054;28;20621;-78
2023/04/29 13:04:07;;;;;;;;;;;15.30;99.90;;;;;;5001114;28;19905;-78
2023/04/29 13:06:38;;;;;;;;;;;15.60;99.90;;;;;;4981697;28;20111;-78
2023/04/29 13:09:10;;;;;;;;;;;15.80;99.90;;;;;;4976382;28;20347;-79
2023/04/29 13:11:37;;;;;;;;;;;16.10;99.90;;;;;;4985200;28;19945;-78
2023/04/29 13:14:05;;;;;;;;;;;16.50;99.90;;;;;;4997357;28;19909;-79
2023/04/29 13:16:33;;;;;;;;;;;16.90;99.90;;;;;;4975334;28;19909;-78
2023/04/29 13:19:01;;;;;;;;;;;17.10;99.90;;;;;;4985349;28;20365;-78
2023/04/29 13:21:27;;;;;;;;;;;17.20;99.90;;;;;;4999168;28;19913;-78
2023/04/29 13:23:55;;;;;;;;;;;17.30;99.90;;;;;;4980367;28;19916;-79
2023/04/29 13:26:26;;;;;;;;;;;17.50;99.90;;;;;;4985225;28;19971;-78
2023/04/29 13:28:52;;;;;;;;;;;17.60;99.90;;;;;;4996780;28;20004;-78
2023/04/29 13:31:31;;;;;;;;;;;17.70;99.90;;;;;;4978659;28;20008;-80
2023/04/29 13:33:57;;;;;;;;;;;18.10;99.90;;;;;;4978612;28;19913;-81
2023/04/29 13:36:27;;;;;;;;;;;18.60;99.90;;;;;;4976794;28;19910;-80
2023/04/29 13:38:52;;;;;;;;;;;18.70;99.90;;;;;;4979977;28;20040;-80
2023/04/29 13:41:22;;;;;;;;;;;18.90;99.90;;;;;;4982689;28;19921;-81
2023/04/29 13:43:47;;;;;;;;;;;19.10;99.90;;;;;;4995994;28;19917;-80
2023/04/29 13:46:14;;;;;;;;;;;19.30;99.90;;;;;;4993779;28;19916;-81
2023/04/29 13:48:41;;;;;;;;;;;19.50;99.90;;;;;;4980302;28;19912;-79
2023/04/29 13:51:07;;;;;;;;;;;19.60;99.90;;;;;;4979515;28;19940;-80
2023/04/29 13:53:33;;;;;;;;;;;19.70;99.90;;;;;;4972490;28;19924;-78
2023/04/29 13:55:59;;;;;;;;;;;19.80;99.90;;;;;;5000906;28;20398;-79
2023/04/29 13:58:25;;;;;;;;;;;20.00;99.90;;;;;;4997276;28;19910;-80
2023/04/29 14:01:00;;;;;;;;;;;19.80;99.90;;;;;;4998286;28;19917;-81
2023/04/29 14:03:29;;;;;;;;;;;19.90;99.90;;;;;;4997190;28;19905;-82
2023/04/29 14:05:57;;;;;;;;;;;19.80;99.90;;;;;;4981397;28;19941;-80
2023/04/29 14:08:27;;;;;;;;;;;19.50;99.90;;;;;;4994568;28;19909;-80
2023/04/29 14:10:58;;;;;;;;;;;19.10;99.90;;;;;;4996660;28;19909;-80
2023/04/29 14:13:25;;;;;;;;;;;18.80;99.90;;;;;;4978633;28;19945;-80
2023/04/29 14:15:58;;;;;;;;;;;18.60;99.90;;;;;;4997920;28;19921;-81
2023/04/29 14:18:26;;;;;;;;;;;18.70;99.90;;;;;;4976504;28;20019;-81
2023/04/29 14:20:58;;;;;;;;;;;18.60;99.90;;;;;;4995883;28;19917;-79
2023/04/29 14:23:27;;;;;;;;;;;18.50;99.90;;;;;;4982104;28;19996;-80
2023/04/29 14:26:00;;;;;;;;;;;18.30;99.90;;;;;;4978950;28;19953;-80
2023/04/29 14:28:31;;;;;;;;;;;18.30;99.90;;;;;;4983992;28;19987;-81